Time;durP1;ratioP1;P1;durP2;ratioP2;P2;SDS_P1;SDS_P2;PMS_P1;PMS_P2;Temp;Humidity;BMP_temperature;BMP_pressure;BME280_temperature;BME280_humidity;BME280_pressure;Samples;Min_cycle;Max_cycle;Signal;HPM_P1;HPM_P2
2022/11/18 05:00:16;;;;;;;1999.90;999.90;;;7.60;99.90;;;;;;6105390;22;20013;-75
2022/11/18 05:02:41;;;;;;;1999.90;999.90;;;7.60;99.90;;;;;;5011181;28;20051;-75
2022/11/18 05:05:07;;;;;;;1999.90;999.90;;;7.60;99.90;;;;;;5012367;28;20417;-75
2022/11/18 05:07:33;;;;;;;1999.90;999.90;;;7.60;99.90;;;;;;5014678;28;20031;-75
2022/11/18 05:09:58;;;;;;;1999.90;999.90;;;7.60;99.90;;;;;;5014606;28;20034;-75
2022/11/18 05:14:53;;;;;;;1999.90;999.90;;;7.60;99.90;;;;;;5011793;28;20145;-76
2022/11/18 05:17:18;;;;;;;1999.90;999.90;;;7.60;99.90;;;;;;5012899;28;20399;-76
2022/11/18 05:19:44;;;;;;;1999.90;999.90;;;7.50;99.90;;;;;;5012863;28;20500;-76
2022/11/18 05:22:09;;;;;;;1999.90;999.90;;;7.50;99.90;;;;;;5014415;28;20480;-76
2022/11/18 05:24:35;;;;;;;1999.90;999.90;;;7.60;99.90;;;;;;5014022;28;20034;-76
2022/11/18 05:27:00;;;;;;;1999.90;999.90;;;7.60;99.90;;;;;;5014057;28;20121;-76
2022/11/18 05:29:26;;;;;;;1999.90;999.90;;;7.60;99.90;;;;;;5014797;28;20038;-76
2022/11/18 05:31:52;;;;;;;1999.90;999.90;;;7.60;99.90;;;;;;5017891;28;20050;-76
2022/11/18 05:34:18;;;;;;;1999.90;999.90;;;7.60;99.90;;;;;;5017312;28;20026;-77
2022/11/18 05:36:44;;;;;;;1999.90;999.90;;;7.60;99.90;;;;;;5017362;28;20483;-77
2022/11/18 05:39:10;;;;;;;1999.90;999.90;;;7.60;99.90;;;;;;5017823;28;20041;-77
2022/11/18 05:44:19;;;;;;;1999.90;999.90;;;7.60;99.90;;;;;;5017473;28;20395;-77
2022/11/18 05:46:45;;;;;;;1999.90;999.90;;;7.60;99.90;;;;;;5017545;28;20038;-76
2022/11/18 05:49:10;;;;;;;1999.90;999.90;;;7.50;99.90;;;;;;5017032;28;20050;-77
2022/11/18 05:51:36;;;;;;;1999.90;999.90;;;7.50;99.90;;;;;;5011901;28;20134;-77
2022/11/18 05:54:07;;;;;;;1999.90;999.90;;;7.50;99.90;;;;;;4996253;28;20031;-77
2022/11/18 05:56:38;;;;;;;1999.90;999.90;;;7.60;99.90;;;;;;4997064;28;20094;-77
2022/11/18 05:59:05;;;;;;;1999.90;999.90;;;7.50;99.90;;;;;;4995978;28;20035;-77
2022/11/18 06:01:39;;;;;;;1999.90;999.90;;;7.50;99.90;;;;;;4997680;28;20134;-77
2022/11/18 06:04:16;;;;;;;1999.90;999.90;;;7.50;99.90;;;;;;4997611;28;20031;-77
2022/11/18 06:06:43;;;;;;;1999.90;999.90;;;7.50;99.90;;;;;;4997501;28;20035;-79
2022/11/18 06:09:09;;;;;;;1999.90;999.90;;;7.50;99.90;;;;;;4996707;28;20050;-81
2022/11/18 06:11:41;;;;;;;1999.90;999.90;;;7.50;99.90;;;;;;4996953;28;20038;-78
2022/11/18 06:14:14;;;;;;;1999.90;999.90;;;7.50;99.90;;;;;;4995405;28;20046;-77
2022/11/18 06:16:48;;;;;;;1999.90;999.90;;;7.60;99.90;;;;;;4995852;28;20035;-75
2022/11/18 06:19:14;;;;;;;1999.90;999.90;;;7.60;99.90;;;;;;4997318;28;20752;-76
2022/11/18 06:21:39;;;;;;;1999.90;999.90;;;7.60;99.90;;;;;;4998852;28;20113;-78
2022/11/18 06:24:06;;;;;;;1999.90;999.90;;;7.60;99.90;;;;;;4996325;28;20090;-79
2022/11/18 06:26:31;;;;;;;1999.90;999.90;;;7.60;99.90;;;;;;4997288;28;20038;-78
2022/11/18 06:28:57;;;;;;;1999.90;999.90;;;7.60;99.90;;;;;;4997483;28;20046;-77
2022/11/18 06:31:23;;;;;;;1999.90;999.90;;;7.60;99.90;;;;;;4997951;28;20042;-79
2022/11/18 06:33:48;;;;;;;1999.90;999.90;;;7.60;99.90;;;;;;4997169;28;20383;-78
2022/11/18 06:36:14;;;;;;;1999.90;999.90;;;7.60;99.90;;;;;;4995451;28;20039;-78
2022/11/18 06:38:39;;;;;;;1999.90;999.90;;;7.60;99.90;;;;;;4995950;28;20046;-79
2022/11/18 06:41:05;;;;;;;1999.90;999.90;;;7.60;99.90;;;;;;4995208;28;20035;-79
2022/11/18 06:43:42;;;;;;;1999.90;999.90;;;7.70;99.90;;;;;;4995466;28;20046;-79
2022/11/18 06:48:58;;;;;;;1999.90;999.90;;;7.70;99.90;;;;;;4995309;28;20130;-79
2022/11/18 06:51:24;;;;;;;1999.90;999.90;;;7.70;99.90;;;;;;4996677;28;20118;-78
2022/11/18 06:53:50;;;;;;;1999.90;999.90;;;7.70;99.90;;;;;;4996696;28;20551;-78
2022/11/18 06:56:17;;;;;;;1999.90;999.90;;;7.70;99.90;;;;;;4996654;28;20047;-79
2022/11/18 06:58:43;;;;;;;1999.90;999.90;;;7.80;99.90;;;;;;4995191;28;20034;-79
2022/11/18 07:01:16;;;;;;;1999.90;999.90;;;7.80;99.90;;;;;;4995248;28;20514;-78
2022/11/18 07:03:44;;;;;;;1999.90;999.90;;;7.80;99.90;;;;;;4995003;28;20390;-78
2022/11/18 07:06:11;;;;;;;1999.90;999.90;;;7.80;99.90;;;;;;4996362;28;20460;-78
2022/11/18 07:08:38;;;;;;;1999.90;999.90;;;7.80;99.90;;;;;;4996871;28;20126;-78
2022/11/18 07:11:07;;;;;;;1999.90;999.90;;;7.80;99.90;;;;;;4995438;28;20519;-78
2022/11/18 07:13:33;;;;;;;1999.90;999.90;;;7.70;99.90;;;;;;4995838;28;20038;-78
2022/11/18 07:16:07;;;;;;;1999.90;999.90;;;7.80;99.90;;;;;;5002300;28;20046;-78
2022/11/18 07:18:34;;;;;;;1999.90;999.90;;;7.70;99.90;;;;;;5007976;28;20110;-78
2022/11/18 07:21:02;;;;;;;1999.90;999.90;;;7.70;99.90;;;;;;5015370;28;20122;-78
2022/11/18 07:23:29;;;;;;;1999.90;999.90;;;7.70;99.90;;;;;;5010055;28;20396;-78
2022/11/18 07:25:55;;;;;;;1999.90;999.90;;;7.70;99.90;;;;;;5014736;28;20050;-79
2022/11/18 07:28:21;;;;;;;1999.90;999.90;;;7.70;99.90;;;;;;5012838;28;20124;-79
2022/11/18 07:30:46;;;;;;;1999.90;999.90;;;7.70;99.90;;;;;;5015204;28;20054;-79
2022/11/18 07:33:12;;;;;;;1999.90;999.90;;;7.70;99.90;;;;;;5010210;28;20384;-79
2022/11/18 07:35:37;;;;;;;1999.90;999.90;;;7.70;99.90;;;;;;5012648;28;20377;-78
2022/11/18 07:38:03;;;;;;;1999.90;999.90;;;7.70;99.90;;;;;;5011721;28;20090;-78
2022/11/18 07:40:28;;;;;;;1999.90;999.90;;;7.80;99.90;;;;;;5012593;28;20045;-78
2022/11/18 07:42:54;;;;;;;1999.90;999.90;;;7.80;99.90;;;;;;5011666;28;20027;-78
2022/11/18 07:45:19;;;;;;;1999.90;999.90;;;7.80;99.90;;;;;;5011465;28;20041;-78
2022/11/18 07:47:45;;;;;;;1999.90;999.90;;;7.80;99.90;;;;;;5014062;28;20073;-79
2022/11/18 07:50:10;;;;;;;1999.90;999.90;;;7.70;99.90;;;;;;5012408;28;20041;-78
2022/11/18 07:52:36;;;;;;;1999.90;999.90;;;7.80;99.90;;;;;;5012817;28;20049;-78
2022/11/18 07:55:02;;;;;;;1999.90;999.90;;;7.80;99.90;;;;;;5013954;28;20035;-78
2022/11/18 07:57:27;;;;;;;1999.90;999.90;;;7.80;99.90;;;;;;5013172;28;20583;-78
2022/11/18 07:59:53;;;;;;;1999.90;999.90;;;7.80;99.90;;;;;;5006684;28;20109;-78
2022/11/18 08:02:18;;;;;;;1999.90;999.90;;;7.80;99.90;;;;;;5014884;28;20040;-78
2022/11/18 08:04:44;;;;;;;1999.90;999.90;;;7.70;99.90;;;;;;5013756;28;20053;-78
2022/11/18 08:07:09;;;;;;;1999.90;999.90;;;7.80;99.90;;;;;;5013272;28;20046;-78
2022/11/18 08:09:35;;;;;;;1999.90;999.90;;;7.70;99.90;;;;;;5015790;28;20039;-81
2022/11/18 08:12:00;;;;;;;1999.90;999.90;;;7.70;99.90;;;;;;5013015;28;20437;-78
2022/11/18 08:14:27;;;;;;;1999.90;999.90;;;7.70;99.90;;;;;;5014871;28;20416;-78
2022/11/18 08:16:53;;;;;;;1999.90;999.90;;;7.70;99.90;;;;;;5020031;28;20042;-77
2022/11/18 08:19:19;;;;;;;1999.90;999.90;;;7.70;99.90;;;;;;5017776;28;20026;-78
2022/11/18 08:21:44;;;;;;;1999.90;999.90;;;7.70;99.90;;;;;;5020767;28;20042;-78
2022/11/18 08:24:10;;;;;;;1999.90;999.90;;;7.60;99.90;;;;;;5009974;28;20026;-77
2022/11/18 08:26:36;;;;;;;1999.90;999.90;;;7.60;99.90;;;;;;5011439;28;20050;-78
2022/11/18 08:29:02;;;;;;;1999.90;999.90;;;7.70;99.90;;;;;;5013436;28;20045;-78
2022/11/18 08:31:31;;;;;;;1999.90;999.90;;;7.60;99.90;;;;;;5012902;28;20609;-78
2022/11/18 08:33:59;;;;;;;1999.90;999.90;;;7.60;99.90;;;;;;5017120;28;20038;-80
2022/11/18 08:36:30;;;;;;;1999.90;999.90;;;7.70;99.90;;;;;;5010840;28;20077;-79
2022/11/18 08:38:56;;;;;;;1999.90;999.90;;;7.60;99.90;;;;;;5002535;28;20541;-78
2022/11/18 08:41:28;;;;;;;1999.90;999.90;;;7.70;99.90;;;;;;4996728;28;20038;-74
2022/11/18 08:43:54;;;;;;;1999.90;999.90;;;7.70;99.90;;;;;;5010425;28;20026;-75
2022/11/18 08:46:19;;;;;;;1999.90;999.90;;;7.70;99.90;;;;;;5006326;28;20400;-75
2022/11/18 08:48:45;;;;;;;1999.90;999.90;;;7.70;99.90;;;;;;5006670;28;20400;-74
2022/11/18 08:51:12;;;;;;;1999.90;999.90;;;7.60;99.90;;;;;;5005950;28;20042;-75
2022/11/18 08:53:38;;;;;;;1999.90;999.90;;;7.70;99.90;;;;;;5008683;28;20069;-75
2022/11/18 08:56:04;;;;;;;1999.90;999.90;;;7.70;99.90;;;;;;5002649;28;20519;-76
2022/11/18 08:58:29;;;;;;;1999.90;999.90;;;7.80;99.90;;;;;;4995381;28;20058;-77
2022/11/18 09:00:55;;;;;;;1999.90;999.90;;;7.80;99.90;;;;;;4995330;28;20042;-77
2022/11/18 09:03:21;;;;;;;1999.90;999.90;;;7.80;99.90;;;;;;5011201;28;20041;-79
2022/11/18 09:05:47;;;;;;;1999.90;999.90;;;7.80;99.90;;;;;;5014851;28;20042;-78
2022/11/18 09:08:12;;;;;;;1999.90;999.90;;;7.80;99.90;;;;;;5008141;28;20031;-79
2022/11/18 09:10:38;;;;;;;1999.90;999.90;;;7.80;99.90;;;;;;5014624;28;20361;-76
2022/11/18 09:13:04;;;;;;;1999.90;999.90;;;7.80;99.90;;;;;;5014216;28;20046;-78
2022/11/18 09:15:29;;;;;;;1999.90;999.90;;;7.70;99.90;;;;;;5014279;28;20158;-76
2022/11/18 09:17:56;;;;;;;1999.90;999.90;;;7.80;99.90;;;;;;5014504;28;20034;-77
2022/11/18 09:20:22;;;;;;;1999.90;999.90;;;7.80;99.90;;;;;;5013228;28;20732;-76
2022/11/18 09:22:48;;;;;;;1999.90;999.90;;;7.90;99.90;;;;;;5014436;28;20121;-77
2022/11/18 09:25:14;;;;;;;1999.90;999.90;;;7.90;99.90;;;;;;5014491;28;20088;-76
2022/11/18 09:27:39;;;;;;;1999.90;999.90;;;7.90;99.90;;;;;;5015309;28;20043;-78
2022/11/18 09:30:05;;;;;;;1999.90;999.90;;;8.00;99.90;;;;;;5014409;28;20037;-78
2022/11/18 09:32:32;;;;;;;1999.90;999.90;;;8.00;99.90;;;;;;5014000;28;20052;-79
2022/11/18 09:34:57;;;;;;;1999.90;999.90;;;8.00;99.90;;;;;;5011120;28;20046;-80
2022/11/18 09:37:23;;;;;;;1999.90;999.90;;;8.00;99.90;;;;;;4995322;28;20504;-77
2022/11/18 09:39:49;;;;;;;1999.90;999.90;;;8.00;99.90;;;;;;4995947;28;20523;-79
2022/11/18 09:42:52;;;;;;;1999.90;999.90;;;8.00;99.90;;;;;;5005352;28;20035;-77
2022/11/18 09:45:27;;;;;;;1999.90;999.90;;;8.00;99.90;;;;;;5006984;28;20049;-80
2022/11/18 09:47:57;;;;;;;1999.90;999.90;;;8.20;99.90;;;;;;5016250;28;20031;-79
2022/11/18 09:50:23;;;;;;;1999.90;999.90;;;8.20;99.90;;;;;;5014774;28;20066;-78
2022/11/18 09:52:54;;;;;;;1999.90;999.90;;;8.20;99.90;;;;;;5013068;28;20116;-77
2022/11/18 09:55:20;;;;;;;1999.90;999.90;;;8.20;99.90;;;;;;5015559;28;20039;-81
2022/11/18 09:57:53;;;;;;;1999.90;999.90;;;8.20;99.90;;;;;;5015236;28;20113;-78
2022/11/18 10:00:27;;;;;;;1999.90;999.90;;;8.30;99.90;;;;;;5015802;28;20037;-79
2022/11/18 10:03:05;;;;;;;1999.90;999.90;;;8.40;99.90;;;;;;5016977;28;20034;-81
2022/11/18 10:05:59;;;;;;;1999.90;999.90;;;8.40;99.90;;;;;;5015965;28;20030;-79
2022/11/18 10:09:21;;;;;;;1999.90;999.90;;;8.50;99.90;;;;;;5016317;28;20041;-77
2022/11/18 10:11:52;;;;;;;1999.90;999.90;;;8.60;99.90;;;;;;4972394;28;20114;-77
2022/11/18 10:14:23;;;;;;;1999.90;999.90;;;8.70;99.90;;;;;;4971199;28;20047;-80
2022/11/18 10:17:23;;;;;;;1999.90;999.90;;;8.70;99.90;;;;;;5003889;28;20575;-79
2022/11/18 10:20:02;;;;;;;1999.90;999.90;;;8.70;99.90;;;;;;5017553;28;20030;-77
2022/11/18 10:23:05;;;;;;;1999.90;999.90;;;8.70;99.90;;;;;;5015809;28;20058;-78
2022/11/18 10:25:31;;;;;;;1999.90;999.90;;;8.70;99.90;;;;;;5015600;28;20034;-78
2022/11/18 10:28:13;;;;;;;1999.90;999.90;;;8.70;99.90;;;;;;5017209;28;20395;-77
2022/11/18 10:30:39;;;;;;;1999.90;999.90;;;8.70;99.90;;;;;;5017527;28;20030;-79
2022/11/18 10:33:18;;;;;;;1999.90;999.90;;;8.80;99.90;;;;;;5016680;28;20034;-77
2022/11/18 10:35:44;;;;;;;1999.90;999.90;;;8.90;99.90;;;;;;5011335;28;20129;-79
2022/11/18 10:38:13;;;;;;;1999.90;999.90;;;8.90;99.90;;;;;;5009015;28;20035;-78
2022/11/18 10:40:58;;;;;;;1999.90;999.90;;;8.80;99.90;;;;;;4997547;28;20042;-78
2022/11/18 10:43:51;;;;;;;1999.90;999.90;;;8.80;99.90;;;;;;5010961;28;20035;-79
2022/11/18 10:46:27;;;;;;;1999.90;999.90;;;8.80;99.90;;;;;;5016270;28;20050;-77
2022/11/18 10:49:08;;;;;;;1999.90;999.90;;;8.90;99.90;;;;;;5016953;28;20041;-77
2022/11/18 10:51:38;;;;;;;1999.90;999.90;;;9.00;99.90;;;;;;5016387;28;20038;-76
2022/11/18 10:54:12;;;;;;;1999.90;999.90;;;9.10;99.90;;;;;;5016335;28;20030;-77
2022/11/18 10:56:44;;;;;;;1999.90;999.90;;;9.10;99.90;;;;;;5016932;28;20046;-76
2022/11/18 10:59:27;;;;;;;1999.90;999.90;;;9.10;99.90;;;;;;5016748;28;20030;-77
2022/11/18 11:02:16;;;;;;;1999.90;999.90;;;9.20;99.90;;;;;;5016487;28;20030;-77
2022/11/18 11:04:44;;;;;;;1999.90;999.90;;;9.10;99.90;;;;;;5015808;28;20034;-77
2022/11/18 11:07:33;;;;;;;1999.90;999.90;;;9.10;99.90;;;;;;5015264;28;20038;-75
2022/11/18 11:10:22;;;;;;;1999.90;999.90;;;9.30;99.90;;;;;;5017124;28;20049;-74
2022/11/18 11:15:18;;;;;;;1999.90;999.90;;;9.40;99.90;;;;;;4996583;28;20109;-78
2022/11/18 11:20:43;;;;;;;1999.90;999.90;;;9.30;99.90;;;;;;4997698;28;20035;-75
